sensor_id;sensor_type;location;lat;lon;timestamp;temperature;humidity
21563;DHT22;10942;47.894;11.424;2023-02-28T00:07:55;-2.80;99.90
21563;DHT22;10942;47.894;11.424;2023-02-28T00:10:27;-2.80;99.90
21563;DHT22;10942;47.894;11.424;2023-02-28T00:12:55;-2.80;99.90
21563;DHT22;10942;47.894;11.424;2023-02-28T00:15:23;-2.80;99.90
21563;DHT22;10942;47.894;11.424;2023-02-28T00:17:49;-2.80;99.90
21563;DHT22;10942;47.894;11.424;2023-02-28T00:20:15;-2.90;99.90
21563;DHT22;10942;47.894;11.424;2023-02-28T00:22:43;-2.80;99.90
21563;DHT22;10942;47.894;11.424;2023-02-28T00:25:11;-2.80;99.90
21563;DHT22;10942;47.894;11.424;2023-02-28T00:27:38;-2.80;99.90
21563;DHT22;10942;47.894;11.424;2023-02-28T00:30:05;-2.80;99.90
21563;DHT22;10942;47.894;11.424;2023-02-28T00:32:32;-2.80;99.90
21563;DHT22;10942;47.894;11.424;2023-02-28T00:34:57;-2.80;99.90
21563;DHT22;10942;47.894;11.424;2023-02-28T00:37:23;-2.80;99.90
21563;DHT22;10942;47.894;11.424;2023-02-28T00:39:49;-2.80;99.90
21563;DHT22;10942;47.894;11.424;2023-02-28T00:42:15;-2.80;99.90
21563;DHT22;10942;47.894;11.424;2023-02-28T00:44:41;-2.80;99.90
21563;DHT22;10942;47.894;11.424;2023-02-28T00:47:07;-2.80;99.90
21563;DHT22;10942;47.894;11.424;2023-02-28T00:49:32;-2.90;99.90
21563;DHT22;10942;47.894;11.424;2023-02-28T00:51:58;-2.90;99.90
21563;DHT22;10942;47.894;11.424;2023-02-28T00:54:25;-2.80;99.90
21563;DHT22;10942;47.894;11.424;2023-02-28T00:56:51;-2.80;99.90
21563;DHT22;10942;47.894;11.424;2023-02-28T00:59:17;-2.90;99.90
21563;DHT22;10942;47.894;11.424;2023-02-28T01:01:45;-2.90;99.90
21563;DHT22;10942;47.894;11.424;2023-02-28T01:04:11;-2.90;99.90
21563;DHT22;10942;47.894;11.424;2023-02-28T01:06:36;-2.90;99.90
21563;DHT22;10942;47.894;11.424;2023-02-28T01:09:03;-2.90;99.90
21563;DHT22;10942;47.894;11.424;2023-02-28T01:11:29;-3.00;99.90
21563;DHT22;10942;47.894;11.424;2023-02-28T01:13:55;-3.00;99.90
21563;DHT22;10942;47.894;11.424;2023-02-28T01:16:21;-3.00;99.90
21563;DHT22;10942;47.894;11.424;2023-02-28T01:18:46;-3.00;99.90
21563;DHT22;10942;47.894;11.424;2023-02-28T01:21:15;-3.20;99.90
21563;DHT22;10942;47.894;11.424;2023-02-28T01:23:41;-3.20;99.90
21563;DHT22;10942;47.894;11.424;2023-02-28T01:28:38;-3.30;99.90
21563;DHT22;10942;47.894;11.424;2023-02-28T01:31:04;-3.30;99.90
21563;DHT22;10942;47.894;11.424;2023-02-28T01:33:31;-3.40;99.90
21563;DHT22;10942;47.894;11.424;2023-02-28T01:36:07;-3.40;99.90
21563;DHT22;10942;47.894;11.424;2023-02-28T01:38:35;-3.50;99.90
21563;DHT22;10942;47.894;11.424;2023-02-28T01:41:01;-3.50;99.90
21563;DHT22;10942;47.894;11.424;2023-02-28T01:43:29;-3.50;99.90
21563;DHT22;10942;47.894;11.424;2023-02-28T01:45:57;-3.50;99.90
21563;DHT22;10942;47.894;11.424;2023-02-28T01:48:27;-3.50;99.90
21563;DHT22;10942;47.894;11.424;2023-02-28T01:50:57;-3.60;99.90
21563;DHT22;10942;47.894;11.424;2023-02-28T01:53:31;-3.60;99.90
21563;DHT22;10942;47.894;11.424;2023-02-28T01:55:58;-3.60;99.90
21563;DHT22;10942;47.894;11.424;2023-02-28T01:58:24;-3.60;99.90
21563;DHT22;10942;47.894;11.424;2023-02-28T02:00:50;-3.60;99.90
21563;DHT22;10942;47.894;11.424;2023-02-28T02:03:18;-3.70;99.90
21563;DHT22;10942;47.894;11.424;2023-02-28T02:05:44;-3.70;99.90
21563;DHT22;10942;47.894;11.424;2023-02-28T02:08:20;-3.70;99.90
21563;DHT22;10942;47.894;11.424;2023-02-28T02:10:52;-3.70;99.90
21563;DHT22;10942;47.894;11.424;2023-02-28T02:13:42;-3.80;99.90
21563;DHT22;10942;47.894;11.424;2023-02-28T02:25:19;-4.00;99.90
21563;DHT22;10942;47.894;11.424;2023-02-28T02:35:53;-4.10;99.90
21563;DHT22;10942;47.894;11.424;2023-02-28T02:41:18;-4.20;99.90
21563;DHT22;10942;47.894;11.424;2023-02-28T02:46:36;-4.20;99.90
21563;DHT22;10942;47.894;11.424;2023-02-28T02:49:07;-4.30;99.90
21563;DHT22;10942;47.894;11.424;2023-02-28T02:51:35;-4.30;99.90
21563;DHT22;10942;47.894;11.424;2023-02-28T02:54:13;-4.30;99.90
21563;DHT22;10942;47.894;11.424;2023-02-28T02:56:43;-4.30;99.90
21563;DHT22;10942;47.894;11.424;2023-02-28T02:59:12;-4.30;99.90
21563;DHT22;10942;47.894;11.424;2023-02-28T03:01:41;-4.30;99.90
21563;DHT22;10942;47.894;11.424;2023-02-28T03:04:18;-4.40;99.90
21563;DHT22;10942;47.894;11.424;2023-02-28T03:06:46;-4.40;99.90
21563;DHT22;10942;47.894;11.424;2023-02-28T03:09:12;-4.40;99.90
21563;DHT22;10942;47.894;11.424;2023-02-28T03:11:39;-4.40;99.90
21563;DHT22;10942;47.894;11.424;2023-02-28T03:22:49;-4.50;99.90
21563;DHT22;10942;47.894;11.424;2023-02-28T03:28:19;-4.60;99.90
21563;DHT22;10942;47.894;11.424;2023-02-28T03:30:54;-4.60;99.90
21563;DHT22;10942;47.894;11.424;2023-02-28T03:33:44;-4.60;99.90
21563;DHT22;10942;47.894;11.424;2023-02-28T03:36:15;-4.60;99.90
21563;DHT22;10942;47.894;11.424;2023-02-28T03:38:49;-4.60;99.90
21563;DHT22;10942;47.894;11.424;2023-02-28T03:41:23;-4.60;99.90
21563;DHT22;10942;47.894;11.424;2023-02-28T03:44:09;-4.60;99.90
21563;DHT22;10942;47.894;11.424;2023-02-28T03:46:44;-4.60;99.90
21563;DHT22;10942;47.894;11.424;2023-02-28T03:49:16;-4.60;99.90
21563;DHT22;10942;47.894;11.424;2023-02-28T03:51:45;-4.60;99.90
21563;DHT22;10942;47.894;11.424;2023-02-28T03:54:15;-4.60;99.90
21563;DHT22;10942;47.894;11.424;2023-02-28T03:56:48;-4.60;99.90
21563;DHT22;10942;47.894;11.424;2023-02-28T03:59:28;-4.60;99.90
21563;DHT22;10942;47.894;11.424;2023-02-28T04:01:54;-4.60;99.90
21563;DHT22;10942;47.894;11.424;2023-02-28T04:04:20;-4.60;99.90
21563;DHT22;10942;47.894;11.424;2023-02-28T04:06:50;-4.60;99.90
21563;DHT22;10942;47.894;11.424;2023-02-28T04:09:16;-4.60;99.90
21563;DHT22;10942;47.894;11.424;2023-02-28T04:11:45;-4.60;99.90
21563;DHT22;10942;47.894;11.424;2023-02-28T04:14:11;-4.60;99.90
21563;DHT22;10942;47.894;11.424;2023-02-28T04:16:40;-4.70;99.90
21563;DHT22;10942;47.894;11.424;2023-02-28T04:19:07;-4.70;99.90
21563;DHT22;10942;47.894;11.424;2023-02-28T04:21:38;-4.70;99.90
21563;DHT22;10942;47.894;11.424;2023-02-28T04:24:06;-4.70;99.90
21563;DHT22;10942;47.894;11.424;2023-02-28T04:26:34;-4.70;99.90
21563;DHT22;10942;47.894;11.424;2023-02-28T04:29:00;-4.70;99.90
21563;DHT22;10942;47.894;11.424;2023-02-28T04:31:26;-4.60;99.90
21563;DHT22;10942;47.894;11.424;2023-02-28T04:33:52;-4.70;99.90
21563;DHT22;10942;47.894;11.424;2023-02-28T04:36:18;-4.70;99.90
21563;DHT22;10942;47.894;11.424;2023-02-28T04:38:44;-4.70;99.90
21563;DHT22;10942;47.894;11.424;2023-02-28T04:41:11;-4.70;99.90
21563;DHT22;10942;47.894;11.424;2023-02-28T04:43:37;-4.70;99.90
21563;DHT22;10942;47.894;11.424;2023-02-28T04:46:04;-4.70;99.90
21563;DHT22;10942;47.894;11.424;2023-02-28T04:48:32;-4.70;99.90
21563;DHT22;10942;47.894;11.424;2023-02-28T04:51:11;-4.70;99.90
21563;DHT22;10942;47.894;11.424;2023-02-28T04:53:38;-4.70;99.90
21563;DHT22;10942;47.894;11.424;2023-02-28T04:56:05;-4.70;99.90
21563;DHT22;10942;47.894;11.424;2023-02-28T04:58:31;-4.70;99.90
21563;DHT22;10942;47.894;11.424;2023-02-28T05:01:06;-4.70;99.90
21563;DHT22;10942;47.894;11.424;2023-02-28T05:03:41;-4.70;99.90
21563;DHT22;10942;47.894;11.424;2023-02-28T05:06:11;-4.60;99.90
21563;DHT22;10942;47.894;11.424;2023-02-28T05:08:37;-4.60;99.90
21563;DHT22;10942;47.894;11.424;2023-02-28T05:11:05;-4.50;99.90
21563;DHT22;10942;47.894;11.424;2023-02-28T05:13:31;-4.40;99.90
21563;DHT22;10942;47.894;11.424;2023-02-28T05:15:56;-4.40;99.90
21563;DHT22;10942;47.894;11.424;2023-02-28T05:18:22;-4.40;99.90
21563;DHT22;10942;47.894;11.424;2023-02-28T05:20:48;-4.40;99.90
21563;DHT22;10942;47.894;11.424;2023-02-28T05:23:14;-4.40;99.90
21563;DHT22;10942;47.894;11.424;2023-02-28T05:25:41;-4.30;99.90
21563;DHT22;10942;47.894;11.424;2023-02-28T05:28:07;-4.30;99.90
21563;DHT22;10942;47.894;11.424;2023-02-28T05:30:33;-4.30;99.90
21563;DHT22;10942;47.894;11.424;2023-02-28T05:32:59;-4.20;99.90
21563;DHT22;10942;47.894;11.424;2023-02-28T05:35:25;-4.20;99.90
21563;DHT22;10942;47.894;11.424;2023-02-28T05:37:51;-4.10;99.90
21563;DHT22;10942;47.894;11.424;2023-02-28T05:40:17;-4.10;99.90
21563;DHT22;10942;47.894;11.424;2023-02-28T05:42:46;-4.00;99.90
21563;DHT22;10942;47.894;11.424;2023-02-28T05:45:12;-4.00;99.90
21563;DHT22;10942;47.894;11.424;2023-02-28T05:47:38;-4.00;99.90
21563;DHT22;10942;47.894;11.424;2023-02-28T05:50:04;-4.00;99.90
21563;DHT22;10942;47.894;11.424;2023-02-28T05:52:31;-4.00;99.90
21563;DHT22;10942;47.894;11.424;2023-02-28T05:54:56;-4.00;99.90
21563;DHT22;10942;47.894;11.424;2023-02-28T05:57:23;-4.00;99.90
21563;DHT22;10942;47.894;11.424;2023-02-28T05:59:49;-3.90;99.90
21563;DHT22;10942;47.894;11.424;2023-02-28T06:02:16;-4.00;99.90
21563;DHT22;10942;47.894;11.424;2023-02-28T06:04:42;-3.90;99.90
21563;DHT22;10942;47.894;11.424;2023-02-28T06:07:09;-3.90;99.90
21563;DHT22;10942;47.894;11.424;2023-02-28T06:09:35;-3.90;99.90
21563;DHT22;10942;47.894;11.424;2023-02-28T06:12:02;-3.80;99.90
21563;DHT22;10942;47.894;11.424;2023-02-28T06:14:29;-3.80;99.90
21563;DHT22;10942;47.894;11.424;2023-02-28T06:16:56;-3.80;99.90
21563;DHT22;10942;47.894;11.424;2023-02-28T06:19:22;-3.80;99.90
21563;DHT22;10942;47.894;11.424;2023-02-28T06:21:51;-3.70;99.90
21563;DHT22;10942;47.894;11.424;2023-02-28T06:24:24;-3.70;99.90
21563;DHT22;10942;47.894;11.424;2023-02-28T06:26:50;-3.70;99.90
21563;DHT22;10942;47.894;11.424;2023-02-28T06:29:16;-3.60;99.90
21563;DHT22;10942;47.894;11.424;2023-02-28T06:31:45;-3.60;99.90
21563;DHT22;10942;47.894;11.424;2023-02-28T06:34:11;-3.60;99.90
21563;DHT22;10942;47.894;11.424;2023-02-28T06:36:41;-3.50;99.90
21563;DHT22;10942;47.894;11.424;2023-02-28T06:39:08;-3.50;99.90
21563;DHT22;10942;47.894;11.424;2023-02-28T06:41:35;-3.50;99.90
21563;DHT22;10942;47.894;11.424;2023-02-28T06:44:14;-3.60;99.90
21563;DHT22;10942;47.894;11.424;2023-02-28T06:46:42;-3.50;99.90
21563;DHT22;10942;47.894;11.424;2023-02-28T06:49:09;-3.50;99.90
21563;DHT22;10942;47.894;11.424;2023-02-28T06:51:36;-3.50;99.90
21563;DHT22;10942;47.894;11.424;2023-02-28T06:54:02;-3.50;99.90
21563;DHT22;10942;47.894;11.424;2023-02-28T06:56:28;-3.50;99.90
21563;DHT22;10942;47.894;11.424;2023-02-28T06:58:54;-3.40;99.90
21563;DHT22;10942;47.894;11.424;2023-02-28T07:01:20;-3.50;99.90
21563;DHT22;10942;47.894;11.424;2023-02-28T07:03:48;-3.50;99.90
21563;DHT22;10942;47.894;11.424;2023-02-28T07:06:21;-3.50;99.90
21563;DHT22;10942;47.894;11.424;2023-02-28T07:08:48;-3.50;99.90
21563;DHT22;10942;47.894;11.424;2023-02-28T07:11:14;-3.30;99.90
21563;DHT22;10942;47.894;11.424;2023-02-28T07:13:40;-3.50;99.90
21563;DHT22;10942;47.894;11.424;2023-02-28T07:16:09;-3.40;99.90
21563;DHT22;10942;47.894;11.424;2023-02-28T07:18:36;-3.40;99.90
21563;DHT22;10942;47.894;11.424;2023-02-28T07:21:04;-3.30;99.90
21563;DHT22;10942;47.894;11.424;2023-02-28T07:23:30;-3.30;99.90
21563;DHT22;10942;47.894;11.424;2023-02-28T07:25:56;-3.40;99.90
21563;DHT22;10942;47.894;11.424;2023-02-28T07:28:22;-3.20;99.90
21563;DHT22;10942;47.894;11.424;2023-02-28T07:30:47;-3.20;99.90
21563;DHT22;10942;47.894;11.424;2023-02-28T07:33:13;-3.20;99.90
21563;DHT22;10942;47.894;11.424;2023-02-28T07:35:40;-3.20;99.90
21563;DHT22;10942;47.894;11.424;2023-02-28T07:38:06;-3.10;99.90
21563;DHT22;10942;47.894;11.424;2023-02-28T07:40:33;-3.20;99.90
21563;DHT22;10942;47.894;11.424;2023-02-28T07:43:00;-3.20;99.90
21563;DHT22;10942;47.894;11.424;2023-02-28T07:45:27;-3.20;99.90
21563;DHT22;10942;47.894;11.424;2023-02-28T07:47:55;-3.00;99.90
21563;DHT22;10942;47.894;11.424;2023-02-28T07:50:20;-3.10;99.90
21563;DHT22;10942;47.894;11.424;2023-02-28T07:52:46;-3.10;99.90
21563;DHT22;10942;47.894;11.424;2023-02-28T07:55:12;-3.00;99.90
21563;DHT22;10942;47.894;11.424;2023-02-28T07:57:39;-3.10;99.90
21563;DHT22;10942;47.894;11.424;2023-02-28T08:00:07;-3.10;99.90
21563;DHT22;10942;47.894;11.424;2023-02-28T08:02:39;-3.10;99.90
21563;DHT22;10942;47.894;11.424;2023-02-28T08:05:06;-3.00;99.90
21563;DHT22;10942;47.894;11.424;2023-02-28T08:07:32;-3.00;99.90
21563;DHT22;10942;47.894;11.424;2023-02-28T08:09:59;-3.00;99.90
21563;DHT22;10942;47.894;11.424;2023-02-28T08:12:25;-3.00;99.90
21563;DHT22;10942;47.894;11.424;2023-02-28T08:14:50;-3.00;99.90
21563;DHT22;10942;47.894;11.424;2023-02-28T08:17:16;-3.10;99.90
21563;DHT22;10942;47.894;11.424;2023-02-28T08:19:44;-3.00;99.90
21563;DHT22;10942;47.894;11.424;2023-02-28T08:22:10;-3.00;99.90
21563;DHT22;10942;47.894;11.424;2023-02-28T08:24:36;-3.00;99.90
21563;DHT22;10942;47.894;11.424;2023-02-28T08:27:01;-3.00;99.90
21563;DHT22;10942;47.894;11.424;2023-02-28T08:29:27;-2.90;99.90
21563;DHT22;10942;47.894;11.424;2023-02-28T08:31:53;-2.90;99.90
21563;DHT22;10942;47.894;11.424;2023-02-28T08:34:18;-2.80;99.90
21563;DHT22;10942;47.894;11.424;2023-02-28T08:36:44;-2.70;99.90
21563;DHT22;10942;47.894;11.424;2023-02-28T08:39:12;-2.60;99.90
21563;DHT22;10942;47.894;11.424;2023-02-28T08:41:37;-2.70;99.90
21563;DHT22;10942;47.894;11.424;2023-02-28T08:44:03;-2.70;99.90
21563;DHT22;10942;47.894;11.424;2023-02-28T08:46:29;-2.70;99.90
21563;DHT22;10942;47.894;11.424;2023-02-28T08:48:56;-2.70;99.90
21563;DHT22;10942;47.894;11.424;2023-02-28T08:51:26;-2.70;99.90
21563;DHT22;10942;47.894;11.424;2023-02-28T08:53:53;-2.50;99.90
21563;DHT22;10942;47.894;11.424;2023-02-28T08:56:20;-2.50;99.90
21563;DHT22;10942;47.894;11.424;2023-02-28T08:58:47;-2.40;99.90
21563;DHT22;10942;47.894;11.424;2023-02-28T09:01:19;-2.50;99.90
21563;DHT22;10942;47.894;11.424;2023-02-28T09:03:46;-2.50;99.90
21563;DHT22;10942;47.894;11.424;2023-02-28T09:06:14;-2.30;99.90
21563;DHT22;10942;47.894;11.424;2023-02-28T09:08:40;-2.30;99.90
21563;DHT22;10942;47.894;11.424;2023-02-28T09:11:06;-2.30;99.90
21563;DHT22;10942;47.894;11.424;2023-02-28T09:13:32;-2.20;99.90
21563;DHT22;10942;47.894;11.424;2023-02-28T09:16:00;-2.40;99.90
21563;DHT22;10942;47.894;11.424;2023-02-28T09:18:26;-2.40;99.90
21563;DHT22;10942;47.894;11.424;2023-02-28T09:20:52;-2.30;99.90
21563;DHT22;10942;47.894;11.424;2023-02-28T09:23:18;-2.30;99.90
21563;DHT22;10942;47.894;11.424;2023-02-28T09:25:53;-2.40;99.90
21563;DHT22;10942;47.894;11.424;2023-02-28T09:28:20;-2.40;99.90
21563;DHT22;10942;47.894;11.424;2023-02-28T09:30:48;-2.40;99.90
21563;DHT22;10942;47.894;11.424;2023-02-28T09:33:15;-2.30;99.90
21563;DHT22;10942;47.894;11.424;2023-02-28T09:35:41;-2.20;99.90
21563;DHT22;10942;47.894;11.424;2023-02-28T09:38:09;-2.10;99.90
21563;DHT22;10942;47.894;11.424;2023-02-28T09:40:50;-2.00;99.90
21563;DHT22;10942;47.894;11.424;2023-02-28T09:43:19;-2.00;99.90
21563;DHT22;10942;47.894;11.424;2023-02-28T09:45:55;-2.00;99.90
21563;DHT22;10942;47.894;11.424;2023-02-28T09:48:33;-2.10;99.90
21563;DHT22;10942;47.894;11.424;2023-02-28T09:53:49;-1.90;99.90
21563;DHT22;10942;47.894;11.424;2023-02-28T09:56:20;-1.80;99.90
21563;DHT22;10942;47.894;11.424;2023-02-28T10:06:51;-1.80;99.90
21563;DHT22;10942;47.894;11.424;2023-02-28T10:09:25;-1.90;99.90
21563;DHT22;10942;47.894;11.424;2023-02-28T10:11:55;-1.80;99.90
21563;DHT22;10942;47.894;11.424;2023-02-28T10:14:25;-1.90;99.90
21563;DHT22;10942;47.894;11.424;2023-02-28T10:17:08;-2.10;99.90
21563;DHT22;10942;47.894;11.424;2023-02-28T10:19:46;-2.00;99.90
21563;DHT22;10942;47.894;11.424;2023-02-28T10:23:00;-2.00;99.90
21563;DHT22;10942;47.894;11.424;2023-02-28T10:25:28;-2.00;99.90
21563;DHT22;10942;47.894;11.424;2023-02-28T10:28:15;-2.00;99.90
21563;DHT22;10942;47.894;11.424;2023-02-28T10:30:50;-1.90;99.90
21563;DHT22;10942;47.894;11.424;2023-02-28T10:33:23;-1.90;99.90
21563;DHT22;10942;47.894;11.424;2023-02-28T10:35:51;-2.00;99.90
21563;DHT22;10942;47.894;11.424;2023-02-28T10:38:26;-1.90;99.90
21563;DHT22;10942;47.894;11.424;2023-02-28T10:41:45;-1.90;99.90
21563;DHT22;10942;47.894;11.424;2023-02-28T10:43:53;-1.80;99.90
21563;DHT22;10942;47.894;11.424;2023-02-28T10:46:39;-1.90;99.90
21563;DHT22;10942;47.894;11.424;2023-02-28T10:49:12;-1.80;99.90
21563;DHT22;10942;47.894;11.424;2023-02-28T10:51:40;-1.80;99.90
21563;DHT22;10942;47.894;11.424;2023-02-28T10:54:13;-1.60;99.90
21563;DHT22;10942;47.894;11.424;2023-02-28T10:56:39;-1.60;99.90
21563;DHT22;10942;47.894;11.424;2023-02-28T11:01:39;-1.40;99.90
21563;DHT22;10942;47.894;11.424;2023-02-28T11:07:20;-1.20;99.90
21563;DHT22;10942;47.894;11.424;2023-02-28T11:09:48;-1.40;99.90
21563;DHT22;10942;47.894;11.424;2023-02-28T11:12:37;-1.40;99.90
21563;DHT22;10942;47.894;11.424;2023-02-28T11:15:28;-1.40;99.90
21563;DHT22;10942;47.894;11.424;2023-02-28T11:17:55;-1.40;99.90
21563;DHT22;10942;47.894;11.424;2023-02-28T11:20:24;-1.30;99.90
21563;DHT22;10942;47.894;11.424;2023-02-28T11:22:50;-1.30;99.90
21563;DHT22;10942;47.894;11.424;2023-02-28T11:25:30;-1.20;99.90
21563;DHT22;10942;47.894;11.424;2023-02-28T11:28:02;-1.30;99.90
21563;DHT22;10942;47.894;11.424;2023-02-28T11:32:57;-1.30;99.90
21563;DHT22;10942;47.894;11.424;2023-02-28T11:35:31;-1.20;99.90
21563;DHT22;10942;47.894;11.424;2023-02-28T11:38:00;-1.20;99.90
21563;DHT22;10942;47.894;11.424;2023-02-28T11:43:24;-1.20;99.90
21563;DHT22;10942;47.894;11.424;2023-02-28T11:48:53;-1.10;99.90
21563;DHT22;10942;47.894;11.424;2023-02-28T11:54:32;-0.90;99.90
21563;DHT22;10942;47.894;11.424;2023-02-28T11:57:33;-0.90;99.90
21563;DHT22;10942;47.894;11.424;2023-02-28T12:03:27;-0.60;99.90
21563;DHT22;10942;47.894;11.424;2023-02-28T12:12:13;-0.70;99.90
21563;DHT22;10942;47.894;11.424;2023-02-28T12:15:05;-0.70;99.90
21563;DHT22;10942;47.894;11.424;2023-02-28T12:18:04;-0.50;99.90
21563;DHT22;10942;47.894;11.424;2023-02-28T12:20:49;-0.20;99.90
21563;DHT22;10942;47.894;11.424;2023-02-28T12:28:34;-0.50;99.90
21563;DHT22;10942;47.894;11.424;2023-02-28T12:33:35;-0.50;99.90
21563;DHT22;10942;47.894;11.424;2023-02-28T12:36:09;-0.50;99.90
21563;DHT22;10942;47.894;11.424;2023-02-28T12:38:47;-0.50;99.90
21563;DHT22;10942;47.894;11.424;2023-02-28T12:41:16;-0.50;99.90
21563;DHT22;10942;47.894;11.424;2023-02-28T12:43:52;-0.60;99.90
21563;DHT22;10942;47.894;11.424;2023-02-28T12:46:30;-0.70;99.90
21563;DHT22;10942;47.894;11.424;2023-02-28T12:49:00;-0.60;99.90
21563;DHT22;10942;47.894;11.424;2023-02-28T12:51:28;-0.60;99.90
21563;DHT22;10942;47.894;11.424;2023-02-28T12:54:20;-0.60;99.90
21563;DHT22;10942;47.894;11.424;2023-02-28T13:10:50;-0.40;99.90
21563;DHT22;10942;47.894;11.424;2023-02-28T13:13:27;-0.50;99.90
21563;DHT22;10942;47.894;11.424;2023-02-28T13:18:38;-0.40;99.90
21563;DHT22;10942;47.894;11.424;2023-02-28T13:21:07;-0.20;99.90
21563;DHT22;10942;47.894;11.424;2023-02-28T13:23:56;-0.10;99.90
21563;DHT22;10942;47.894;11.424;2023-02-28T13:34:36;0.20;99.90
21563;DHT22;10942;47.894;11.424;2023-02-28T13:47:40;0.20;99.90
21563;DHT22;10942;47.894;11.424;2023-02-28T13:50:31;0.00;99.90
21563;DHT22;10942;47.894;11.424;2023-02-28T13:53:26;0.00;99.90
21563;DHT22;10942;47.894;11.424;2023-02-28T13:58:39;0.10;99.90
21563;DHT22;10942;47.894;11.424;2023-02-28T14:01:31;0.10;99.90
21563;DHT22;10942;47.894;11.424;2023-02-28T14:04:56;0.00;99.90
21563;DHT22;10942;47.894;11.424;2023-02-28T14:07:30;0.20;99.90
21563;DHT22;10942;47.894;11.424;2023-02-28T14:10:03;0.10;99.90
21563;DHT22;10942;47.894;11.424;2023-02-28T14:18:27;-0.10;99.90
21563;DHT22;10942;47.894;11.424;2023-02-28T14:21:38;0.00;99.90
21563;DHT22;10942;47.894;11.424;2023-02-28T14:32:35;0.00;99.90
21563;DHT22;10942;47.894;11.424;2023-02-28T14:37:51;-0.10;99.90
21563;DHT22;10942;47.894;11.424;2023-02-28T14:40:32;0.00;99.90
21563;DHT22;10942;47.894;11.424;2023-02-28T14:43:04;0.00;99.90
21563;DHT22;10942;47.894;11.424;2023-02-28T14:45:33;0.00;99.90
21563;DHT22;10942;47.894;11.424;2023-02-28T14:48:01;0.10;99.90
21563;DHT22;10942;47.894;11.424;2023-02-28T14:50:30;0.10;99.90
21563;DHT22;10942;47.894;11.424;2023-02-28T14:52:57;0.20;99.90
21563;DHT22;10942;47.894;11.424;2023-02-28T14:55:30;0.10;99.90
21563;DHT22;10942;47.894;11.424;2023-02-28T14:57:59;0.10;99.90
21563;DHT22;10942;47.894;11.424;2023-02-28T15:00:27;0.00;99.90
21563;DHT22;10942;47.894;11.424;2023-02-28T15:02:54;0.00;99.90
21563;DHT22;10942;47.894;11.424;2023-02-28T15:05:32;0.00;99.90
21563;DHT22;10942;47.894;11.424;2023-02-28T15:08:14;-0.10;99.90
21563;DHT22;10942;47.894;11.424;2023-02-28T15:10:43;0.00;99.90
21563;DHT22;10942;47.894;11.424;2023-02-28T15:13:14;0.10;99.90
21563;DHT22;10942;47.894;11.424;2023-02-28T15:15:53;0.00;99.90
21563;DHT22;10942;47.894;11.424;2023-02-28T15:18:31;0.10;99.90
21563;DHT22;10942;47.894;11.424;2023-02-28T15:21:06;0.10;99.90
21563;DHT22;10942;47.894;11.424;2023-02-28T15:23:34;0.10;99.90
21563;DHT22;10942;47.894;11.424;2023-02-28T15:26:01;0.10;99.90
21563;DHT22;10942;47.894;11.424;2023-02-28T15:28:28;0.10;99.90
21563;DHT22;10942;47.894;11.424;2023-02-28T15:30:59;0.10;99.90
21563;DHT22;10942;47.894;11.424;2023-02-28T15:33:34;0.10;99.90
21563;DHT22;10942;47.894;11.424;2023-02-28T15:36:12;0.10;99.90
21563;DHT22;10942;47.894;11.424;2023-02-28T15:38:38;0.20;99.90
21563;DHT22;10942;47.894;11.424;2023-02-28T15:41:04;0.10;99.90
21563;DHT22;10942;47.894;11.424;2023-02-28T15:43:37;0.10;99.90
21563;DHT22;10942;47.894;11.424;2023-02-28T15:46:12;0.10;99.90
21563;DHT22;10942;47.894;11.424;2023-02-28T15:48:55;0.10;99.90
21563;DHT22;10942;47.894;11.424;2023-02-28T15:51:24;0.10;99.90
21563;DHT22;10942;47.894;11.424;2023-02-28T15:53:56;0.10;99.90
21563;DHT22;10942;47.894;11.424;2023-02-28T15:56:26;0.10;99.90
21563;DHT22;10942;47.894;11.424;2023-02-28T15:58:57;0.20;99.90
21563;DHT22;10942;47.894;11.424;2023-02-28T16:01:24;0.10;99.90
21563;DHT22;10942;47.894;11.424;2023-02-28T16:03:53;0.10;99.90
21563;DHT22;10942;47.894;11.424;2023-02-28T16:06:36;0.10;99.90
21563;DHT22;10942;47.894;11.424;2023-02-28T16:09:03;0.00;99.90
21563;DHT22;10942;47.894;11.424;2023-02-28T16:11:29;0.10;99.90
21563;DHT22;10942;47.894;11.424;2023-02-28T16:13:57;0.00;99.90
21563;DHT22;10942;47.894;11.424;2023-02-28T16:16:24;-0.10;99.90
21563;DHT22;10942;47.894;11.424;2023-02-28T16:18:51;-0.10;99.90
21563;DHT22;10942;47.894;11.424;2023-02-28T16:21:17;-0.10;99.90
21563;DHT22;10942;47.894;11.424;2023-02-28T16:23:43;-0.20;99.90
21563;DHT22;10942;47.894;11.424;2023-02-28T16:26:21;-0.20;99.90
21563;DHT22;10942;47.894;11.424;2023-02-28T16:28:48;-0.20;99.90
21563;DHT22;10942;47.894;11.424;2023-02-28T16:31:15;-0.20;99.90
21563;DHT22;10942;47.894;11.424;2023-02-28T16:33:42;-0.20;99.90
21563;DHT22;10942;47.894;11.424;2023-02-28T16:36:35;-0.20;99.90
21563;DHT22;10942;47.894;11.424;2023-02-28T16:39:01;-0.20;99.90
21563;DHT22;10942;47.894;11.424;2023-02-28T16:41:28;-0.30;99.90
21563;DHT22;10942;47.894;11.424;2023-02-28T16:43:55;-0.30;99.90
21563;DHT22;10942;47.894;11.424;2023-02-28T16:46:33;-0.30;99.90
21563;DHT22;10942;47.894;11.424;2023-02-28T16:48:59;-0.40;99.90
21563;DHT22;10942;47.894;11.424;2023-02-28T16:51:24;-0.40;99.90
21563;DHT22;10942;47.894;11.424;2023-02-28T16:53:50;-0.50;99.90
21563;DHT22;10942;47.894;11.424;2023-02-28T16:56:19;-0.50;99.90
21563;DHT22;10942;47.894;11.424;2023-02-28T16:58:46;-0.50;99.90
21563;DHT22;10942;47.894;11.424;2023-02-28T17:01:12;-0.60;99.90
21563;DHT22;10942;47.894;11.424;2023-02-28T17:03:38;-0.60;99.90
21563;DHT22;10942;47.894;11.424;2023-02-28T17:06:06;-0.60;99.90
21563;DHT22;10942;47.894;11.424;2023-02-28T17:08:32;-0.70;99.90
21563;DHT22;10942;47.894;11.424;2023-02-28T17:11:01;-0.70;99.90
21563;DHT22;10942;47.894;11.424;2023-02-28T17:13:28;-0.80;99.90
21563;DHT22;10942;47.894;11.424;2023-02-28T17:15:54;-0.80;99.90
21563;DHT22;10942;47.894;11.424;2023-02-28T17:18:20;-0.80;99.90
21563;DHT22;10942;47.894;11.424;2023-02-28T17:20:49;-0.80;99.90
21563;DHT22;10942;47.894;11.424;2023-02-28T17:23:15;-0.80;99.90
21563;DHT22;10942;47.894;11.424;2023-02-28T17:25:41;-0.90;99.90
21563;DHT22;10942;47.894;11.424;2023-02-28T17:28:14;-0.80;99.90
21563;DHT22;10942;47.894;11.424;2023-02-28T17:30:40;-0.80;99.90
21563;DHT22;10942;47.894;11.424;2023-02-28T17:33:12;-0.80;99.90
21563;DHT22;10942;47.894;11.424;2023-02-28T17:35:37;-0.90;99.90
21563;DHT22;10942;47.894;11.424;2023-02-28T17:38:03;-0.90;99.90
21563;DHT22;10942;47.894;11.424;2023-02-28T17:40:29;-0.90;99.90
21563;DHT22;10942;47.894;11.424;2023-02-28T17:42:54;-0.90;99.90
21563;DHT22;10942;47.894;11.424;2023-02-28T17:45:22;-0.90;99.90
21563;DHT22;10942;47.894;11.424;2023-02-28T17:47:49;-0.90;99.90
21563;DHT22;10942;47.894;11.424;2023-02-28T17:50:21;-0.90;99.90
21563;DHT22;10942;47.894;11.424;2023-02-28T17:52:47;-0.90;99.90
21563;DHT22;10942;47.894;11.424;2023-02-28T17:55:13;-0.90;99.90
21563;DHT22;10942;47.894;11.424;2023-02-28T17:57:40;-0.90;99.90
21563;DHT22;10942;47.894;11.424;2023-02-28T18:00:07;-0.90;99.90